createdAt,value
2023-04-18T00:00:10.176Z,1061.00
2023-04-18T00:01:10.210Z,1061.00
2023-04-18T00:02:10.319Z,1057.00
2023-04-18T00:03:10.490Z,1060.00
2023-04-18T00:04:10.726Z,1064.00
2023-04-18T00:05:10.528Z,1065.00
2023-04-18T00:06:10.487Z,1061.00
2023-04-18T00:07:10.531Z,1063.00
2023-04-18T00:08:10.589Z,1064.00
2023-04-18T00:09:10.674Z,1066.00
2023-04-18T00:10:10.677Z,1063.00
2023-04-18T00:11:10.735Z,1062.00
2023-04-18T00:12:10.780Z,1058.00
2023-04-18T00:13:10.834Z,1063.00
2023-04-18T00:14:10.985Z,1063.00
2023-04-18T00:15:10.974Z,1062.00
2023-04-18T00:16:10.965Z,1060.00
2023-04-18T00:17:11.163Z,1059.00
2023-04-18T00:18:11.086Z,1061.00
2023-04-18T00:19:11.089Z,1064.00
2023-04-18T00:20:11.222Z,1065.00
2023-04-18T00:21:11.181Z,1062.00
2023-04-18T00:22:11.213Z,1061.00
2023-04-18T00:23:13.328Z,1061.00
2023-04-18T00:24:11.399Z,1060.00
2023-04-18T00:25:11.401Z,1059.00
2023-04-18T00:26:11.410Z,1058.00
2023-04-18T00:27:11.438Z,1056.00
2023-04-18T00:28:11.496Z,1054.00
2023-04-18T00:29:11.540Z,1055.00
2023-04-18T00:30:11.560Z,1055.00
2023-04-18T00:31:11.616Z,1054.00
2023-04-18T00:32:11.646Z,1051.00
2023-04-18T00:33:11.686Z,1049.00
2023-04-18T00:34:11.989Z,1046.00
2023-04-18T00:35:11.777Z,1044.00
2023-04-18T00:36:11.887Z,1044.00
2023-04-18T00:37:11.897Z,1044.00
2023-04-18T00:38:11.956Z,1043.00
2023-04-18T00:39:11.971Z,1043.00
2023-04-18T00:40:12.088Z,1045.00
2023-04-18T00:41:12.044Z,1047.00
2023-04-18T00:42:12.083Z,1048.00
2023-04-18T00:43:12.154Z,1049.00
2023-04-18T00:44:12.299Z,1050.00
2023-04-18T00:45:12.246Z,1047.00
2023-04-18T00:46:12.270Z,1047.00
2023-04-18T00:47:12.298Z,1044.00
2023-04-18T00:48:12.348Z,1048.00
2023-04-18T00:49:12.398Z,1046.00
2023-04-18T00:50:12.499Z,1045.00
2023-04-18T00:51:12.469Z,1049.00
2023-04-18T00:52:12.539Z,1048.00
2023-04-18T00:53:12.604Z,1045.00
2023-04-18T00:54:12.785Z,1044.00
2023-04-18T00:55:12.667Z,1044.00
2023-04-18T00:56:12.655Z,1041.00
2023-04-18T00:57:12.725Z,1043.00
2023-04-18T00:58:12.759Z,1044.00
2023-04-18T00:59:12.832Z,1043.00
2023-04-18T01:00:12.873Z,1040.00
2023-04-18T01:01:12.918Z,1039.00
2023-04-18T01:02:12.982Z,1044.00
2023-04-18T01:03:13.147Z,1046.00
2023-04-18T01:04:13.301Z,1044.00
2023-04-18T01:05:13.072Z,1044.00
2023-04-18T01:06:13.096Z,1047.00
2023-04-18T01:07:13.180Z,1045.00
2023-04-18T01:08:13.168Z,1049.00
2023-04-18T01:09:13.213Z,1047.00
2023-04-18T01:10:13.248Z,1049.00
2023-04-18T01:11:13.241Z,1045.00
2023-04-18T01:12:13.265Z,1045.00
2023-04-18T01:13:13.338Z,1045.00
2023-04-18T01:14:13.468Z,1045.00
2023-04-18T01:15:13.387Z,1048.00
2023-04-18T01:16:13.423Z,1043.00
2023-04-18T01:17:13.568Z,1044.00
2023-04-18T01:18:13.493Z,1043.00
2023-04-18T01:19:13.497Z,1041.00
2023-04-18T01:20:13.615Z,1041.00
2023-04-18T01:21:13.587Z,1043.00
2023-04-18T01:22:13.657Z,1041.00
2023-04-18T01:23:13.665Z,1041.00
2023-04-18T01:24:13.832Z,1040.00
2023-04-18T01:25:13.778Z,1039.00
2023-04-18T01:26:13.987Z,1037.00
2023-04-18T01:27:13.853Z,1036.00
2023-04-18T01:28:13.816Z,1034.00
2023-04-18T01:29:13.894Z,1028.00
2023-04-18T01:30:13.946Z,1030.00
2023-04-18T01:31:13.964Z,1034.00
2023-04-18T01:32:13.989Z,1035.00
2023-04-18T01:33:14.011Z,1033.00
2023-04-18T01:34:14.204Z,1031.00
2023-04-18T01:35:14.066Z,1034.00
2023-04-18T01:36:14.118Z,1035.00
2023-04-18T01:37:14.132Z,1038.00
2023-04-18T01:38:14.173Z,1038.00
2023-04-18T01:39:14.227Z,1037.00
2023-04-18T01:40:14.239Z,1038.00
2023-04-18T01:41:14.247Z,1036.00
2023-04-18T01:42:14.277Z,1036.00
2023-04-18T01:43:14.355Z,1036.00
2023-04-18T01:44:14.520Z,1034.00
2023-04-18T01:45:14.384Z,1032.00
2023-04-18T01:46:14.433Z,1035.00
2023-04-18T01:47:14.426Z,1036.00
2023-04-18T01:48:14.497Z,1034.00
2023-04-18T01:49:14.546Z,1030.00
2023-04-18T01:50:14.609Z,1032.00
2023-04-18T01:51:14.583Z,1031.00
2023-04-18T01:52:14.620Z,1033.00
2023-04-18T01:53:14.692Z,1033.00
2023-04-18T01:54:14.809Z,1033.00
2023-04-18T01:55:14.710Z,1031.00
2023-04-18T01:56:14.774Z,1029.00
2023-04-18T01:57:14.790Z,1027.00
2023-04-18T01:58:14.807Z,1024.00
2023-04-18T01:59:14.846Z,1021.00
2023-04-18T02:00:14.896Z,1022.00
2023-04-18T02:01:14.981Z,1025.00
2023-04-18T02:02:14.998Z,1025.00
2023-04-18T02:03:15.084Z,1021.00
2023-04-18T02:04:15.294Z,1020.00
2023-04-18T02:05:15.049Z,1022.00
2023-04-18T02:06:15.075Z,1023.00
2023-04-18T02:07:15.110Z,1027.00
2023-04-18T02:08:15.986Z,1026.00
2023-04-18T02:09:15.159Z,1024.00
2023-04-18T02:10:15.204Z,1026.00
2023-04-18T02:11:15.242Z,1026.00
2023-04-18T02:12:15.239Z,1023.00
2023-04-18T02:13:15.264Z,1025.00
2023-04-18T02:14:15.525Z,1025.00
2023-04-18T02:15:15.341Z,1025.00
2023-04-18T02:16:15.435Z,1027.00
2023-04-18T02:17:15.396Z,1029.00
2023-04-18T02:18:15.387Z,1029.00
2023-04-18T02:19:15.452Z,1024.00
2023-04-18T02:20:15.500Z,1027.00
2023-04-18T02:21:15.510Z,1031.00
2023-04-18T02:22:15.529Z,1027.00
2023-04-18T02:23:15.562Z,1024.00
2023-04-18T02:24:15.652Z,1026.00
2023-04-18T02:25:15.634Z,1023.00
2023-04-18T02:26:15.662Z,1024.00
2023-04-18T02:27:15.642Z,1023.00
2023-04-18T02:28:15.699Z,1017.00
2023-04-18T02:29:15.842Z,1023.00
2023-04-18T02:30:15.786Z,1025.00
2023-04-18T02:31:15.833Z,1025.00
2023-04-18T02:32:15.820Z,1021.00
2023-04-18T02:33:15.855Z,1021.00
2023-04-18T02:34:16.101Z,1023.00
2023-04-18T02:35:15.910Z,1023.00
2023-04-18T02:36:15.947Z,1022.00
2023-04-18T02:37:15.968Z,1021.00
2023-04-18T02:38:15.991Z,1022.00
2023-04-18T02:39:16.030Z,1025.00
2023-04-18T02:40:16.074Z,1023.00
2023-04-18T02:41:16.094Z,1021.00
2023-04-18T02:42:16.110Z,1024.00
2023-04-18T02:43:16.128Z,1023.00
2023-04-18T02:44:16.212Z,1021.00
2023-04-18T02:45:16.230Z,1021.00
2023-04-18T02:46:16.316Z,1021.00
2023-04-18T02:47:16.249Z,1024.00
2023-04-18T02:48:16.323Z,1025.00
2023-04-18T02:49:16.349Z,1024.00
2023-04-18T02:50:16.358Z,1020.00
2023-04-18T02:51:16.374Z,1019.00
2023-04-18T02:52:16.446Z,1020.00
2023-04-18T02:53:16.472Z,1016.00
2023-04-18T02:54:16.572Z,1018.00
2023-04-18T02:55:16.528Z,1017.00
2023-04-18T02:56:16.585Z,1015.00
2023-04-18T02:57:16.560Z,1015.00
2023-04-18T02:58:16.608Z,1019.00
2023-04-18T02:59:16.617Z,1019.00
2023-04-18T03:00:16.643Z,1017.00
2023-04-18T03:01:17.100Z,1019.00
2023-04-18T03:02:16.784Z,1018.00
2023-04-18T03:03:16.797Z,1020.00
2023-04-18T03:04:16.869Z,1017.00
2023-04-18T03:05:16.842Z,1017.00
2023-04-18T03:06:16.856Z,1017.00
2023-04-18T03:07:16.905Z,1019.00
2023-04-18T03:08:16.917Z,1018.00
2023-04-18T03:09:16.921Z,1017.00
2023-04-18T03:10:16.936Z,1017.00
2023-04-18T03:11:16.964Z,1017.00
2023-04-18T03:12:16.971Z,1014.00
2023-04-18T03:13:17.054Z,1013.00
2023-04-18T03:14:17.060Z,1012.00
2023-04-18T03:15:17.095Z,1012.00
2023-04-18T03:16:17.197Z,1013.00
2023-04-18T03:17:17.117Z,1016.00
2023-04-18T03:18:17.237Z,1016.00
2023-04-18T03:19:17.261Z,1015.00
2023-04-18T03:20:17.247Z,1015.00
2023-04-18T03:21:17.241Z,1015.00
2023-04-18T03:22:17.260Z,1016.00
2023-04-18T03:23:17.358Z,1012.00
2023-04-18T03:24:17.655Z,1010.00
2023-04-18T03:25:17.389Z,1013.00
2023-04-18T03:26:17.418Z,1015.00
2023-04-18T03:27:17.405Z,1010.00
2023-04-18T03:28:17.451Z,1009.00
2023-04-18T03:29:17.441Z,1007.00
2023-04-18T03:30:17.517Z,1008.00
2023-04-18T03:31:17.622Z,1010.00
2023-04-18T03:32:17.669Z,1009.00
2023-04-18T03:33:17.572Z,1007.00
2023-04-18T03:34:17.585Z,1006.00
2023-04-18T03:35:17.627Z,1008.00
2023-04-18T03:36:17.623Z,1010.00
2023-04-18T03:37:17.687Z,1011.00
2023-04-18T03:38:17.716Z,1011.00
2023-04-18T03:39:17.717Z,1008.00
2023-04-18T03:40:17.756Z,1007.00
2023-04-18T03:41:17.777Z,1009.00
2023-04-18T03:42:17.842Z,1010.00
2023-04-18T03:43:17.856Z,1013.00
2023-04-18T03:44:17.831Z,1012.00
2023-04-18T03:45:17.894Z,1007.00
2023-04-18T03:46:17.952Z,1005.00
2023-04-18T03:47:17.903Z,1001.00
2023-04-18T03:48:17.955Z,1002.00
2023-04-18T03:49:17.967Z,1005.00
2023-04-18T03:50:17.985Z,1007.00
2023-04-18T03:51:18.003Z,1011.00
2023-04-18T03:52:18.037Z,1012.00
2023-04-18T03:53:18.093Z,1013.00
2023-04-18T03:54:18.113Z,1008.00
2023-04-18T03:55:18.128Z,1006.00
2023-04-18T03:56:18.148Z,1007.00
2023-04-18T03:57:18.186Z,1009.00
2023-04-18T03:58:18.212Z,1009.00
2023-04-18T03:59:18.254Z,1011.00
2023-04-18T04:00:18.266Z,1010.00
2023-04-18T04:01:18.297Z,1012.00
2023-04-18T04:02:18.402Z,1015.00
2023-04-18T04:03:18.503Z,1016.00
2023-04-18T04:04:18.608Z,1016.00
2023-04-18T04:05:18.435Z,1011.00
2023-04-18T04:06:18.464Z,1012.00
2023-04-18T04:07:18.461Z,1012.00
2023-04-18T04:08:18.485Z,1014.00
2023-04-18T04:09:18.552Z,1012.00
2023-04-18T04:10:18.565Z,1009.00
2023-04-18T04:11:18.584Z,1006.00
2023-04-18T04:12:18.658Z,1004.00
2023-04-18T04:13:18.680Z,1003.00
2023-04-18T04:14:18.654Z,1003.00
2023-04-18T04:15:18.667Z,1004.00
2023-04-18T04:16:18.775Z,1004.00
2023-04-18T04:17:18.753Z,1007.00
2023-04-18T04:18:18.772Z,1006.00
2023-04-18T04:19:18.780Z,1008.00
2023-04-18T04:20:19.118Z,1009.00
2023-04-18T04:21:20.069Z,1006.00
2023-04-18T04:22:18.841Z,1006.00
2023-04-18T04:23:18.903Z,1006.00
2023-04-18T04:24:18.947Z,1005.00
2023-04-18T04:25:18.937Z,1005.00
2023-04-18T04:26:18.958Z,1005.00
2023-04-18T04:27:19.123Z,1006.00
2023-04-18T04:28:19.005Z,1006.00
2023-04-18T04:29:19.040Z,1005.00
2023-04-18T04:30:19.103Z,1006.00
2023-04-18T04:31:19.143Z,1006.00
2023-04-18T04:32:19.175Z,1004.00
2023-04-18T04:33:19.153Z,1003.00
2023-04-18T04:34:19.164Z,1003.00
2023-04-18T04:35:19.184Z,1001.00
2023-04-18T04:36:19.204Z,1000.00
2023-04-18T04:37:19.238Z,998.00
2023-04-18T04:38:19.299Z,1000.00
2023-04-18T04:39:19.294Z,1002.00
2023-04-18T04:40:19.332Z,1003.00
2023-04-18T04:41:19.344Z,1003.00
2023-04-18T04:42:19.421Z,1002.00
2023-04-18T04:43:19.389Z,1002.00
2023-04-18T04:44:19.551Z,1001.00
2023-04-18T04:45:19.431Z,999.00
2023-04-18T04:46:19.529Z,1003.00
2023-04-18T04:47:19.605Z,1004.00
2023-04-18T04:48:19.582Z,1004.00
2023-04-18T04:49:19.547Z,1004.00
2023-04-18T04:50:19.535Z,1004.00
2023-04-18T04:51:19.588Z,1002.00
2023-04-18T04:52:19.661Z,1004.00
2023-04-18T04:53:19.624Z,1003.00
2023-04-18T04:54:19.624Z,1002.00
2023-04-18T04:55:19.668Z,1001.00
2023-04-18T04:56:19.670Z,1000.00
2023-04-18T04:57:19.754Z,1000.00
2023-04-18T04:58:19.761Z,1001.00
2023-04-18T04:59:19.741Z,1002.00
2023-04-18T05:00:19.777Z,1003.00
2023-04-18T05:01:19.854Z,999.00
2023-04-18T05:02:19.895Z,997.00
2023-04-18T05:03:19.989Z,996.00
2023-04-18T05:04:20.269Z,1001.00
2023-04-18T05:05:19.894Z,1003.00
2023-04-18T05:06:19.915Z,1002.00
2023-04-18T05:07:20.597Z,1005.00
2023-04-18T05:08:19.955Z,1004.00
2023-04-18T05:09:20.028Z,999.00
2023-04-18T05:10:19.993Z,997.00
2023-04-18T05:11:20.054Z,994.00
2023-04-18T05:12:20.073Z,996.00
2023-04-18T05:13:20.101Z,997.00
2023-04-18T05:14:20.119Z,995.00
2023-04-18T05:15:20.120Z,996.00
2023-04-18T05:16:20.149Z,999.00
2023-04-18T05:17:20.161Z,998.00
2023-04-18T05:18:20.231Z,998.00
2023-04-18T05:19:20.235Z,994.00
2023-04-18T05:20:20.278Z,994.00
2023-04-18T05:21:20.280Z,994.00
2023-04-18T05:22:20.300Z,995.00
2023-04-18T05:23:20.631Z,991.00
2023-04-18T05:24:20.398Z,992.00
2023-04-18T05:25:20.373Z,992.00
2023-04-18T05:26:20.434Z,992.00
2023-04-18T05:27:20.418Z,989.00
2023-04-18T05:28:20.632Z,992.00
2023-04-18T05:29:20.524Z,994.00
2023-04-18T05:30:20.497Z,993.00
2023-04-18T05:31:20.627Z,997.00
2023-04-18T05:32:20.627Z,993.00
2023-04-18T05:33:20.585Z,994.00
2023-04-18T05:34:20.599Z,1036.00
2023-04-18T05:35:20.672Z,1028.00
2023-04-18T05:36:20.687Z,1129.00
2023-04-18T05:37:20.758Z,1308.00
2023-04-18T05:38:20.737Z,1253.00
2023-04-18T05:39:20.878Z,1247.00
2023-04-18T05:40:21.587Z,1245.00
2023-04-18T05:41:20.826Z,1312.00
2023-04-18T05:42:20.854Z,1321.00
2023-04-18T05:43:21.763Z,1390.00
2023-04-18T05:44:21.009Z,1406.00
2023-04-18T05:45:21.093Z,1431.00
2023-04-18T05:46:20.822Z,1508.00
2023-04-18T05:47:20.796Z,1512.00
2023-04-18T05:48:20.777Z,1516.00
2023-04-18T05:49:20.758Z,1523.00
2023-04-18T05:50:21.230Z,1547.00
2023-04-18T05:51:20.692Z,1553.00
2023-04-18T05:52:20.698Z,1567.00
2023-04-18T05:53:21.130Z,1575.00
2023-04-18T05:54:20.667Z,1586.00
2023-04-18T05:55:20.702Z,1588.00
2023-04-18T05:56:20.759Z,1589.00
2023-04-18T05:57:20.834Z,1592.00
2023-04-18T05:58:20.883Z,1600.00
2023-04-18T05:59:20.910Z,1614.00
2023-04-18T06:00:21.001Z,1622.00
2023-04-18T06:01:21.051Z,1626.00
2023-04-18T06:02:21.195Z,1630.00
2023-04-18T06:03:21.233Z,1625.00
2023-04-18T06:04:21.325Z,1622.00
2023-04-18T06:05:21.440Z,1620.00
2023-04-18T06:06:21.239Z,1623.00
2023-04-18T06:07:21.245Z,1619.00
2023-04-18T06:08:21.295Z,1619.00
2023-04-18T06:09:21.343Z,1612.00
2023-04-18T06:10:21.376Z,1609.00
2023-04-18T06:11:21.514Z,1604.00
2023-04-18T06:12:21.549Z,1596.00
2023-04-18T06:13:21.523Z,1586.00
2023-04-18T06:14:21.581Z,1578.00
2023-04-18T06:15:21.581Z,1579.00
2023-04-18T06:16:21.672Z,1582.00
2023-04-18T06:17:21.688Z,1580.00
2023-04-18T06:18:21.694Z,1580.00
2023-04-18T06:19:21.712Z,1595.00
2023-04-18T06:20:21.728Z,1588.00
2023-04-18T06:21:21.743Z,1587.00
2023-04-18T06:22:21.739Z,1590.00
2023-04-18T06:23:21.799Z,1598.00
2023-04-18T06:24:21.802Z,1600.00
2023-04-18T06:25:21.848Z,1592.00
2023-04-18T06:26:21.904Z,1582.00
2023-04-18T06:27:31.013Z,1566.00
2023-04-18T06:28:22.900Z,1559.00
2023-04-18T06:29:21.880Z,1547.00
2023-04-18T06:30:21.988Z,1541.00
2023-04-18T06:31:21.882Z,1541.00
2023-04-18T06:32:21.945Z,1544.00
2023-04-18T06:33:21.848Z,1539.00
2023-04-18T06:34:21.823Z,1533.00
2023-04-18T06:35:22.491Z,1528.00
2023-04-18T06:36:21.871Z,1528.00
2023-04-18T06:37:21.818Z,1528.00
2023-04-18T06:38:22.145Z,1534.00
2023-04-18T06:39:21.806Z,1553.00
2023-04-18T06:40:22.687Z,1650.00
2023-04-18T06:41:21.840Z,1712.00
2023-04-18T06:42:22.516Z,1674.00
2023-04-18T06:43:21.776Z,1685.00
2023-04-18T06:44:21.959Z,1692.00
2023-04-18T06:45:22.140Z,1689.00
2023-04-18T06:46:21.841Z,1672.00
2023-04-18T06:47:21.883Z,1635.00
2023-04-18T06:48:21.791Z,1619.00
2023-04-18T06:49:26.264Z,1620.00
2023-04-18T06:50:22.119Z,1630.00
2023-04-18T06:51:21.742Z,1642.00
2023-04-18T06:52:21.732Z,1620.00
2023-04-18T06:53:21.729Z,1674.00
2023-04-18T06:54:21.728Z,1569.00
2023-04-18T06:55:21.758Z,1598.00
2023-04-18T06:56:21.716Z,1596.00
2023-04-18T06:57:21.728Z,1598.00
2023-04-18T06:58:21.728Z,1592.00
2023-04-18T06:59:22.649Z,1579.00
2023-04-18T07:00:22.151Z,1585.00
2023-04-18T07:01:21.717Z,1586.00
2023-04-18T07:02:21.709Z,1592.00
2023-04-18T07:03:22.305Z,1588.00
2023-04-18T07:04:21.764Z,1593.00
2023-04-18T07:05:22.360Z,1601.00
2023-04-18T07:06:21.647Z,1610.00
2023-04-18T07:07:21.672Z,1609.00
2023-04-18T07:08:21.679Z,1611.00
2023-04-18T07:09:21.651Z,1614.00
2023-04-18T07:10:21.779Z,1613.00
2023-04-18T07:11:21.760Z,1619.00
2023-04-18T07:12:21.824Z,1609.00
2023-04-18T07:13:21.889Z,1641.00
2023-04-18T07:14:21.884Z,1618.00
2023-04-18T07:15:21.984Z,1622.00
2023-04-18T07:16:22.080Z,1605.00
2023-04-18T07:17:22.094Z,1608.00
2023-04-18T07:18:34.288Z,1605.00
2023-04-18T07:19:23.264Z,1606.00
2023-04-18T07:20:22.302Z,1602.00
2023-04-18T07:21:22.389Z,1604.00
2023-04-18T07:22:22.392Z,1593.00
2023-04-18T07:23:22.538Z,1582.00
2023-04-18T07:24:22.484Z,1571.00
2023-04-18T07:25:22.555Z,1565.00
2023-04-18T07:26:22.624Z,1568.00
2023-04-18T07:27:22.696Z,1570.00
2023-04-18T07:28:22.701Z,1573.00
2023-04-18T07:29:22.728Z,1612.00
2023-04-18T07:30:22.810Z,1590.00
2023-04-18T07:31:22.848Z,1590.00
2023-04-18T07:32:23.694Z,1706.00
2023-04-18T07:33:22.993Z,1748.00
2023-04-18T07:34:23.701Z,1758.00
2023-04-18T07:35:23.047Z,1821.00
2023-04-18T07:36:23.120Z,1890.00
2023-04-18T07:37:23.187Z,1906.00
2023-04-18T07:38:23.200Z,1885.00
2023-04-18T07:39:23.269Z,1896.00
2023-04-18T07:41:06.764Z,1974.00
2023-04-18T07:42:06.748Z,2011.00
2023-04-18T07:43:06.853Z,2028.00
2023-04-18T07:44:06.800Z,2059.00
2023-04-18T07:45:06.777Z,2089.00
2023-04-18T07:46:06.788Z,2093.00
2023-04-18T07:47:06.739Z,2152.00
2023-04-18T07:48:06.812Z,2160.00
2023-04-18T07:49:06.735Z,2174.00
2023-04-18T07:50:06.761Z,2209.00
2023-04-18T07:51:06.933Z,2234.00
2023-04-18T07:52:07.405Z,2291.00
2023-04-18T07:53:06.873Z,2313.00
2023-04-18T07:54:06.821Z,2334.00
2023-04-18T07:55:06.755Z,2345.00
2023-04-18T07:56:07.922Z,2340.00
2023-04-18T07:57:06.712Z,2353.00
2023-04-18T07:58:06.699Z,2370.00
2023-04-18T07:59:07.493Z,2375.00
2023-04-18T08:00:06.686Z,2357.00
2023-04-18T08:01:06.911Z,2317.00
2023-04-18T08:02:06.707Z,2346.00
2023-04-18T08:03:06.775Z,2360.00
2023-04-18T08:04:06.789Z,2383.00
2023-04-18T08:05:06.711Z,2390.00
2023-04-18T08:06:06.646Z,2406.00
2023-04-18T08:07:06.655Z,2437.00
2023-04-18T08:08:06.611Z,2458.00
2023-04-18T08:09:06.663Z,2469.00
2023-04-18T08:10:06.625Z,2477.00
2023-04-18T08:11:06.633Z,2523.00
2023-04-18T08:12:06.591Z,2570.00
2023-04-18T08:13:06.597Z,2544.00
2023-04-18T08:14:06.605Z,2644.00
2023-04-18T08:15:06.637Z,2638.00
2023-04-18T08:16:06.691Z,2656.00
2023-04-18T08:17:06.567Z,2665.00
2023-04-18T08:18:06.669Z,2668.00
2023-04-18T08:19:06.584Z,2676.00
2023-04-18T08:20:06.548Z,2689.00
2023-04-18T08:21:06.641Z,2788.00
2023-04-18T08:22:06.542Z,2780.00
2023-04-18T08:23:09.452Z,2794.00
2023-04-18T08:24:06.576Z,2741.00
2023-04-18T08:25:06.529Z,1683.00
2023-04-18T08:26:06.999Z,1569.00
2023-04-18T08:27:06.526Z,1630.00
2023-04-18T08:28:06.499Z,1276.00
2023-04-18T08:29:06.538Z,1168.00
2023-04-18T08:30:06.534Z,1225.00
2023-04-18T08:31:06.959Z,1253.00
2023-04-18T08:32:06.626Z,1253.00
2023-04-18T08:33:06.527Z,1189.00
2023-04-18T08:34:07.429Z,1274.00
2023-04-18T08:35:06.932Z,1340.00
2023-04-18T08:36:06.537Z,1133.00
2023-04-18T08:37:06.449Z,1219.00
2023-04-18T08:38:06.475Z,1232.00
2023-04-18T08:39:06.489Z,1354.00
2023-04-18T08:40:06.905Z,1372.00
2023-04-18T08:41:07.070Z,1379.00
2023-04-18T08:42:06.622Z,1471.00
2023-04-18T08:43:06.604Z,1476.00
2023-04-18T08:44:06.622Z,1467.00
2023-04-18T08:45:06.609Z,1457.00
2023-04-18T08:46:06.980Z,1469.00
2023-04-18T08:47:06.652Z,1528.00
2023-04-18T08:48:06.682Z,1542.00
2023-04-18T08:49:06.745Z,1544.00
2023-04-18T08:50:06.750Z,1546.00
2023-04-18T08:51:06.925Z,1555.00
2023-04-18T08:52:06.864Z,1556.00
2023-04-18T08:53:06.861Z,1563.00
2023-04-18T08:54:06.995Z,1633.00
2023-04-18T08:55:07.926Z,1636.00
2023-04-18T08:56:07.428Z,1640.00
2023-04-18T08:57:07.162Z,1644.00
2023-04-18T08:58:07.211Z,1646.00
2023-04-18T08:59:07.169Z,1659.00
2023-04-18T09:00:07.417Z,1671.00
2023-04-18T09:01:07.302Z,1708.00
2023-04-18T09:02:07.298Z,1677.00
2023-04-18T09:03:07.492Z,1685.00
2023-04-18T09:04:07.387Z,1695.00
2023-04-18T09:05:07.413Z,1707.00
2023-04-18T09:06:07.482Z,1711.00
2023-04-18T09:07:07.479Z,1691.00
2023-04-18T09:08:07.518Z,1785.00
2023-04-18T09:09:07.592Z,1766.00
2023-04-18T09:10:07.615Z,1724.00
2023-04-18T09:11:07.683Z,1732.00
2023-04-18T09:12:07.743Z,1755.00
2023-04-18T09:13:07.814Z,1752.00
2023-04-18T09:14:07.829Z,1750.00
2023-04-18T09:15:07.845Z,1753.00
2023-04-18T09:16:07.946Z,1785.00
2023-04-18T09:17:07.929Z,1807.00
2023-04-18T09:18:07.952Z,1797.00
2023-04-18T09:19:09.183Z,1822.00
2023-04-18T09:20:08.505Z,1903.00
2023-04-18T09:21:08.460Z,1841.00
2023-04-18T09:22:08.088Z,1783.00
2023-04-18T09:23:08.109Z,1810.00
2023-04-18T09:24:08.111Z,1793.00
2023-04-18T09:25:08.165Z,1799.00
2023-04-18T09:26:08.165Z,1854.00
2023-04-18T09:27:08.195Z,1868.00
2023-04-18T09:28:08.252Z,1879.00
2023-04-18T09:29:08.255Z,1869.00
2023-04-18T09:30:08.268Z,1879.00
2023-04-18T09:31:08.414Z,1889.00
2023-04-18T09:32:08.294Z,1869.00
2023-04-18T09:33:08.315Z,1872.00
2023-04-18T09:34:08.368Z,1800.00
2023-04-18T09:35:08.445Z,1530.00
2023-04-18T09:36:08.944Z,1230.00
2023-04-18T09:37:08.489Z,860.00
2023-04-18T09:38:08.677Z,897.00
2023-04-18T09:39:08.546Z,939.00
2023-04-18T09:40:08.569Z,985.00
2023-04-18T09:41:08.581Z,975.00
2023-04-18T09:42:08.612Z,971.00
2023-04-18T09:43:08.672Z,965.00
2023-04-18T09:44:09.658Z,977.00
2023-04-18T09:45:08.737Z,991.00
2023-04-18T09:46:08.889Z,1010.00
2023-04-18T09:47:08.745Z,1009.00
2023-04-18T09:48:08.894Z,1029.00
2023-04-18T09:49:10.913Z,1033.00
2023-04-18T09:50:08.961Z,1030.00
2023-04-18T09:51:08.953Z,832.00
2023-04-18T09:52:08.905Z,797.00
2023-04-18T09:53:08.859Z,822.00
2023-04-18T09:54:08.916Z,914.00
2023-04-18T09:55:08.967Z,917.00
2023-04-18T09:56:08.954Z,914.00
2023-04-18T09:57:08.919Z,926.00
2023-04-18T09:58:08.934Z,938.00
2023-04-18T09:59:09.080Z,944.00
2023-04-18T10:00:09.036Z,964.00
2023-04-18T10:01:09.035Z,979.00
2023-04-18T10:02:09.158Z,991.00
2023-04-18T10:03:09.221Z,1007.00
2023-04-18T10:04:09.112Z,1034.00
2023-04-18T10:05:10.007Z,1033.00
2023-04-18T10:06:09.211Z,1034.00
2023-04-18T10:07:09.267Z,1044.00
2023-04-18T10:08:09.350Z,1053.00
2023-04-18T10:09:09.454Z,1086.00
2023-04-18T10:10:09.494Z,1101.00
2023-04-18T10:11:09.505Z,1110.00
2023-04-18T10:12:09.553Z,1119.00
2023-04-18T10:13:09.628Z,1128.00
2023-04-18T10:14:09.702Z,1139.00
2023-04-18T10:15:09.710Z,1161.00
2023-04-18T10:16:09.811Z,1184.00
2023-04-18T10:17:09.781Z,1121.00
2023-04-18T10:18:09.802Z,1132.00
2023-04-18T10:19:09.846Z,1130.00
2023-04-18T10:20:09.868Z,1136.00
2023-04-18T10:21:10.005Z,1143.00
2023-04-18T10:22:09.998Z,1163.00
2023-04-18T10:23:10.059Z,1161.00
2023-04-18T10:24:10.092Z,1159.00
2023-04-18T10:25:10.186Z,1165.00
2023-04-18T10:26:10.249Z,1179.00
2023-04-18T10:27:10.510Z,1142.00
2023-04-18T10:28:10.196Z,1107.00
2023-04-18T10:29:10.221Z,1165.00
2023-04-18T10:30:10.246Z,1160.00
2023-04-18T10:31:10.607Z,1241.00
2023-04-18T10:32:10.553Z,1257.00
2023-04-18T10:33:18.369Z,1258.00
2023-04-18T10:34:11.969Z,1258.00
2023-04-18T10:35:10.360Z,1274.00
2023-04-18T10:36:10.260Z,1303.00
2023-04-18T10:37:10.279Z,1309.00
2023-04-18T10:38:10.251Z,1234.00
2023-04-18T10:39:10.237Z,1255.00
2023-04-18T10:40:10.299Z,1342.00
2023-04-18T10:41:10.299Z,1342.00
2023-04-18T10:42:10.215Z,1286.00
2023-04-18T10:43:10.217Z,1304.00
2023-04-18T10:44:10.363Z,1302.00
2023-04-18T10:45:10.197Z,1296.00
2023-04-18T10:46:23.988Z,1329.00
2023-04-18T10:47:11.241Z,1326.00
2023-04-18T10:48:10.243Z,1309.00
2023-04-18T10:49:10.363Z,1345.00
2023-04-18T10:50:10.173Z,1309.00
2023-04-18T10:51:10.185Z,1319.00
2023-04-18T10:52:12.306Z,1324.00
2023-04-18T10:53:10.147Z,1339.00
2023-04-18T10:54:10.154Z,1349.00
2023-04-18T10:55:10.142Z,1370.00
2023-04-18T10:56:10.178Z,1381.00
2023-04-18T10:57:10.157Z,1399.00
2023-04-18T10:58:10.108Z,1434.00
2023-04-18T10:59:10.105Z,1462.00
2023-04-18T11:00:10.161Z,1471.00
2023-04-18T11:01:10.146Z,1493.00
2023-04-18T11:02:10.236Z,1504.00
2023-04-18T11:03:10.340Z,1502.00
2023-04-18T11:04:10.180Z,1503.00
2023-04-18T11:05:10.097Z,1505.00
2023-04-18T11:06:10.103Z,1526.00
2023-04-18T11:07:10.089Z,1541.00
2023-04-18T11:08:10.050Z,1568.00
2023-04-18T11:09:10.039Z,1592.00
2023-04-18T11:10:10.038Z,1597.00
2023-04-18T11:11:10.110Z,1600.00
2023-04-18T11:12:10.091Z,1617.00
2023-04-18T11:13:10.027Z,1657.00
2023-04-18T11:14:10.022Z,1658.00
2023-04-18T11:15:12.015Z,1645.00
2023-04-18T11:16:10.070Z,1634.00
2023-04-18T11:17:10.002Z,1672.00
2023-04-18T11:18:10.148Z,1690.00
2023-04-18T11:19:09.991Z,1704.00
2023-04-18T11:20:10.011Z,1743.00
2023-04-18T11:21:09.986Z,1737.00
2023-04-18T11:22:10.069Z,1730.00
2023-04-18T11:23:09.995Z,1726.00
2023-04-18T11:24:09.959Z,1722.00
2023-04-18T11:25:10.003Z,1720.00
2023-04-18T11:26:10.030Z,1712.00
2023-04-18T11:27:10.495Z,1710.00
2023-04-18T11:28:10.172Z,1707.00
2023-04-18T11:29:10.145Z,1700.00
2023-04-18T11:30:10.253Z,1695.00
2023-04-18T11:31:10.251Z,1690.00
2023-04-18T11:32:10.388Z,1689.00
2023-04-18T11:33:10.331Z,1686.00
2023-04-18T11:34:10.354Z,1689.00
2023-04-18T11:35:10.391Z,1689.00
2023-04-18T11:36:10.467Z,1691.00
2023-04-18T11:37:10.474Z,1692.00
2023-04-18T11:38:10.536Z,1693.00
2023-04-18T11:39:10.638Z,1692.00
2023-04-18T11:40:10.598Z,1690.00
2023-04-18T11:41:10.639Z,1688.00
2023-04-18T11:42:10.713Z,1687.00
2023-04-18T11:43:10.709Z,1687.00
2023-04-18T11:44:10.757Z,1683.00
2023-04-18T11:45:10.764Z,1681.00
2023-04-18T11:46:11.051Z,1679.00
2023-04-18T11:47:10.868Z,1674.00
2023-04-18T11:48:10.909Z,1673.00
2023-04-18T11:49:10.966Z,1670.00
2023-04-18T11:50:11.007Z,1666.00
2023-04-18T11:51:11.044Z,1666.00
2023-04-18T11:52:11.076Z,1665.00
2023-04-18T11:53:11.265Z,1662.00
2023-04-18T11:54:11.225Z,1663.00
2023-04-18T11:55:11.155Z,1665.00
2023-04-18T11:56:11.292Z,1665.00
2023-04-18T11:57:11.260Z,1667.00
2023-04-18T11:58:11.331Z,1663.00
2023-04-18T11:59:11.346Z,1662.00
2023-04-18T12:00:11.401Z,1656.00
2023-04-18T12:01:11.463Z,1657.00
2023-04-18T12:03:13.917Z,1657.00
2023-04-18T12:04:11.851Z,1659.00
2023-04-18T12:05:12.139Z,1654.00
2023-04-18T12:06:11.729Z,1652.00
2023-04-18T12:07:11.739Z,1649.00
2023-04-18T12:08:11.793Z,1644.00
2023-04-18T12:09:11.788Z,1641.00